Time;durP1;ratioP1;P1;durP2;ratioP2;P2;SDS_P1;SDS_P2;PMS_P1;PMS_P2;Temp;Humidity;BMP_temperature;BMP_pressure;BME280_temperature;BME280_humidity;BME280_pressure;Samples;Min_cycle;Max_cycle;Signal;HPM_P1;HPM_P2
2021/08/02 00:02:00;;;;;;;10.57;9.47;;;15.80;99.90;;;;;;4873283;29;20463;-71
2021/08/02 00:04:37;;;;;;;10.83;9.80;;;15.70;99.90;;;;;;4881214;29;20573;-70
2021/08/02 00:07:05;;;;;;;10.53;9.60;;;15.70;99.90;;;;;;4958548;29;20505;-70
2021/08/02 00:09:41;;;;;;;11.03;10.00;;;15.70;99.90;;;;;;4958440;29;20770;-70
2021/08/02 00:12:11;;;;;;;10.83;9.93;;;15.80;99.90;;;;;;4959317;29;20462;-70
2021/08/02 00:14:41;;;;;;;10.47;9.60;;;15.70;99.90;;;;;;4958355;29;20518;-71
2021/08/02 00:17:08;;;;;;;10.73;9.73;;;15.70;99.90;;;;;;4958751;29;20803;-71
2021/08/02 00:19:35;;;;;;;10.00;9.03;;;15.60;99.90;;;;;;4958787;29;20488;-70
2021/08/02 00:22:03;;;;;;;11.90;10.70;;;15.60;99.90;;;;;;4958752;29;20458;-70
2021/08/02 00:24:31;;;;;;;11.13;10.10;;;15.70;99.90;;;;;;4959469;29;20599;-70
2021/08/02 00:27:00;;;;;;;13.60;10.43;;;15.70;99.90;;;;;;4962951;28;20887;-70
2021/08/02 00:29:30;;;;;;;11.57;10.47;;;15.60;99.90;;;;;;4962928;29;20493;-71
2021/08/02 00:32:01;;;;;;;12.43;10.10;;;15.60;99.90;;;;;;4962859;29;20553;-70
2021/08/02 00:34:28;;;;;;;13.13;11.30;;;15.60;99.90;;;;;;4962687;29;20850;-70
2021/08/02 00:36:59;;;;;;;13.13;11.83;;;15.60;99.90;;;;;;4962204;29;20471;-70
2021/08/02 00:39:34;;;;;;;13.50;12.30;;;15.70;99.90;;;;;;4962397;29;20529;-70
2021/08/02 00:42:35;;;;;;;13.93;12.53;;;15.60;99.90;;;;;;4962113;29;20485;-70
2021/08/02 00:45:19;;;;;;;13.23;11.90;;;15.60;99.90;;;;;;4939552;29;20466;-70
2021/08/02 00:47:54;;;;;;;13.77;12.50;;;15.60;99.90;;;;;;4962817;29;20930;-70
2021/08/02 00:50:23;;;;;;;14.17;12.77;;;15.70;99.90;;;;;;4961860;29;20466;-70
2021/08/02 00:52:53;;;;;;;13.17;11.97;;;15.60;99.90;;;;;;4962592;29;20465;-70
2021/08/02 00:55:21;;;;;;;14.07;12.60;;;15.70;99.90;;;;;;4961812;29;20467;-70
2021/08/02 00:57:49;;;;;;;14.93;13.63;;;15.70;99.90;;;;;;4962531;29;20498;-70
2021/08/02 01:00:19;;;;;;;14.10;12.63;;;15.70;99.90;;;;;;4962041;29;20823;-70
2021/08/02 01:02:50;;;;;;;16.50;13.30;;;15.60;99.90;;;;;;4962731;29;20502;-70
2021/08/02 01:05:17;;;;;;;16.17;14.47;;;15.60;99.90;;;;;;4955958;28;20793;-70
2021/08/02 01:07:51;;;;;;;17.80;16.00;;;15.60;99.90;;;;;;4959039;28;20470;-70
2021/08/02 01:10:19;;;;;;;18.47;16.67;;;15.60;99.90;;;;;;4961818;29;20466;-69
2021/08/02 01:12:54;;;;;;;18.40;16.70;;;15.60;99.90;;;;;;4961670;29;20473;-69
2021/08/02 01:15:23;;;;;;;18.00;16.10;;;15.50;99.90;;;;;;4961393;29;20472;-69
2021/08/02 01:17:54;;;;;;;15.70;14.10;;;15.50;99.90;;;;;;4962023;29;20541;-69
2021/08/02 01:20:21;;;;;;;15.57;13.97;;;15.40;99.90;;;;;;4962376;29;20530;-69
2021/08/02 01:22:50;;;;;;;14.67;12.50;;;15.40;99.90;;;;;;4961596;29;20903;-69
2021/08/02 01:25:57;;;;;;;15.20;13.60;;;15.40;99.90;;;;;;4961356;29;20463;-69
2021/08/02 01:29:01;;;;;;;14.20;11.90;;;15.20;99.90;;;;;;4961895;29;20462;-69
2021/08/02 01:31:29;;;;;;;12.70;11.50;;;15.20;99.90;;;;;;4961644;29;20492;-69
2021/08/02 01:33:56;;;;;;;13.50;11.70;;;15.20;99.90;;;;;;4961899;29;20526;-69
2021/08/02 01:36:23;;;;;;;11.60;10.40;;;15.10;99.90;;;;;;4961064;28;20479;-69
2021/08/02 01:38:54;;;;;;;12.13;10.93;;;15.10;99.90;;;;;;4961221;29;20994;-70
2021/08/02 01:41:21;;;;;;;13.43;12.13;;;15.10;99.90;;;;;;4961072;29;20978;-70
2021/08/02 01:43:51;;;;;;;13.70;12.30;;;15.10;99.90;;;;;;4961694;29;20803;-70
2021/08/02 01:46:32;;;;;;;12.80;11.70;;;15.10;99.90;;;;;;4961980;29;20450;-70
2021/08/02 01:49:07;;;;;;;14.63;11.43;;;15.10;99.90;;;;;;4961682;29;20463;-69
2021/08/02 01:51:39;;;;;;;12.20;11.10;;;15.20;99.90;;;;;;4960903;29;20530;-70
2021/08/02 01:54:20;;;;;;;16.33;12.40;;;15.20;99.90;;;;;;4961598;29;20549;-69
2021/08/02 01:56:51;;;;;;;15.40;13.03;;;15.30;99.90;;;;;;4961432;29;20467;-69
2021/08/02 01:59:21;;;;;;;14.47;11.70;;;15.20;99.90;;;;;;4961152;29;20502;-69
2021/08/02 02:01:55;;;;;;;13.00;11.50;;;15.20;99.90;;;;;;4960973;29;20510;-69
2021/08/02 02:04:26;;;;;;;13.83;11.20;;;15.30;99.90;;;;;;4953279;28;20482;-70
2021/08/02 02:06:58;;;;;;;12.17;11.07;;;15.20;99.90;;;;;;4960578;29;20535;-69
2021/08/02 02:09:28;;;;;;;14.80;13.30;;;15.20;99.90;;;;;;4960494;29;20459;-69
2021/08/02 02:12:00;;;;;;;14.70;12.67;;;15.20;99.90;;;;;;4961287;29;20765;-69
2021/08/02 02:14:36;;;;;;;13.67;12.30;;;15.20;99.90;;;;;;4960604;29;20462;-69
2021/08/02 02:17:04;;;;;;;11.20;10.10;;;15.10;99.90;;;;;;4961038;29;20467;-69
2021/08/02 02:19:33;;;;;;;12.70;11.40;;;15.00;99.90;;;;;;4960544;29;20503;-70
2021/08/02 02:22:01;;;;;;;12.37;10.70;;;15.10;99.90;;;;;;4960121;29;20481;-70
2021/08/02 02:24:31;;;;;;;11.97;10.77;;;15.10;99.90;;;;;;4961086;29;20471;-70
2021/08/02 02:26:59;;;;;;;16.93;10.63;;;15.10;99.90;;;;;;4960736;29;20522;-70
2021/08/02 02:29:29;;;;;;;11.37;10.37;;;15.10;99.90;;;;;;4960687;29;20542;-70
2021/08/02 02:31:57;;;;;;;12.63;10.50;;;15.10;99.90;;;;;;4960501;29;20506;-70
2021/08/02 02:34:25;;;;;;;12.47;10.17;;;15.00;99.90;;;;;;4960468;29;20523;-70
2021/08/02 02:36:53;;;;;;;13.07;10.03;;;14.90;99.90;;;;;;4960663;29;20474;-70
2021/08/02 02:39:21;;;;;;;12.40;11.03;;;14.90;99.90;;;;;;4959921;29;20502;-70
2021/08/02 02:41:50;;;;;;;10.40;9.00;;;14.90;99.90;;;;;;4960531;29;20916;-70
2021/08/02 02:44:18;;;;;;;8.40;7.60;;;14.90;99.90;;;;;;4959997;29;20466;-70
2021/08/02 02:46:45;;;;;;;9.30;8.30;;;14.90;99.90;;;;;;4960830;29;20531;-70
2021/08/02 02:49:13;;;;;;;8.37;7.30;;;14.90;99.90;;;;;;4959800;28;20463;-70
2021/08/02 02:51:41;;;;;;;8.77;6.93;;;15.00;99.90;;;;;;4960147;29;20467;-70
2021/08/02 02:54:11;;;;;;;9.33;7.90;;;14.90;99.90;;;;;;4960285;29;20490;-70
2021/08/02 02:56:38;;;;;;;9.10;8.20;;;14.90;99.90;;;;;;4960163;29;20466;-70
2021/08/02 02:59:06;;;;;;;8.53;7.57;;;14.90;99.90;;;;;;4960016;29;20491;-70
2021/08/02 03:01:39;;;;;;;10.40;8.17;;;14.80;99.90;;;;;;4959834;29;20903;-70
2021/08/02 03:04:07;;;;;;;9.43;8.37;;;14.80;99.90;;;;;;4951805;28;20816;-71
2021/08/02 03:06:37;;;;;;;9.20;7.60;;;14.70;99.90;;;;;;4959473;29;20926;-70
2021/08/02 03:09:08;;;;;;;13.13;7.60;;;14.60;99.90;;;;;;4959385;29;20463;-70
2021/08/02 03:11:38;;;;;;;8.00;7.30;;;14.70;99.90;;;;;;4959792;29;20565;-70
2021/08/02 03:14:06;;;;;;;11.17;8.10;;;14.70;99.90;;;;;;4959289;29;20845;-70
2021/08/02 03:16:34;;;;;;;10.20;8.00;;;14.70;99.90;;;;;;4960075;29;20538;-70
2021/08/02 03:19:04;;;;;;;10.23;8.47;;;14.70;99.90;;;;;;4960153;29;20589;-70
2021/08/02 03:21:31;;;;;;;8.97;6.87;;;14.70;99.90;;;;;;4959454;29;20455;-70
2021/08/02 03:24:08;;;;;;;13.90;7.83;;;14.50;99.90;;;;;;4959583;29;20467;-70
2021/08/02 03:26:43;;;;;;;8.90;7.53;;;14.50;99.90;;;;;;4959861;29;20470;-70
2021/08/02 03:29:18;;;;;;;8.90;7.20;;;14.50;99.90;;;;;;4959882;29;20800;-70
2021/08/02 03:31:51;;;;;;;8.13;6.43;;;14.50;99.90;;;;;;4959504;29;20466;-70
2021/08/02 03:34:24;;;;;;;8.60;6.17;;;14.40;99.90;;;;;;4959500;29;20463;-70
2021/08/02 03:36:52;;;;;;;7.70;6.40;;;14.40;99.90;;;;;;4959852;29;20538;-70
2021/08/02 03:39:22;;;;;;;7.73;6.20;;;14.40;99.90;;;;;;4958929;29;20509;-70
2021/08/02 03:41:51;;;;;;;6.53;5.77;;;14.30;99.90;;;;;;4959881;29;20462;-70
2021/08/02 03:44:21;;;;;;;7.30;6.57;;;14.40;99.90;;;;;;4959060;29;20814;-70
2021/08/02 03:46:48;;;;;;;8.40;6.47;;;14.40;99.90;;;;;;4959422;29;20533;-70
2021/08/02 03:49:15;;;;;;;7.43;6.70;;;14.40;99.90;;;;;;4959111;29;20526;-70
2021/08/02 03:51:57;;;;;;;8.73;6.60;;;14.30;99.90;;;;;;4959012;29;20470;-70
2021/08/02 03:54:27;;;;;;;10.67;7.10;;;14.40;99.90;;;;;;4959021;29;20471;-71
2021/08/02 03:56:55;;;;;;;9.30;6.17;;;14.30;99.90;;;;;;4959149;29;20903;-71
2021/08/02 03:59:24;;;;;;;10.33;5.87;;;14.30;99.90;;;;;;4959010;28;20498;-71
2021/08/02 04:01:51;;;;;;;12.00;6.00;;;14.40;99.90;;;;;;4958872;29;20466;-70
2021/08/02 04:04:18;;;;;;;8.83;6.57;;;14.40;99.90;;;;;;4951369;28;20493;-71
2021/08/02 04:06:46;;;;;;;6.83;5.77;;;14.30;99.90;;;;;;4959026;29;20808;-70
2021/08/02 04:09:17;;;;;;;6.23;5.63;;;14.30;99.90;;;;;;4958649;29;20462;-70
2021/08/02 04:11:45;;;;;;;5.57;4.83;;;14.30;99.90;;;;;;4959257;29;20775;-71
2021/08/02 04:14:13;;;;;;;11.67;5.77;;;14.20;99.90;;;;;;4958712;29;20931;-71
2021/08/02 04:16:42;;;;;;;8.73;5.77;;;14.20;99.90;;;;;;4958909;29;20752;-71
2021/08/02 04:19:12;;;;;;;12.30;5.17;;;14.20;99.90;;;;;;4959009;29;20503;-71
2021/08/02 04:21:42;;;;;;;8.23;6.00;;;14.20;99.90;;;;;;4958888;29;20468;-71
2021/08/02 04:24:09;;;;;;;7.33;5.57;;;14.20;99.90;;;;;;4958911;29;20466;-71
2021/08/02 04:26:38;;;;;;;11.10;5.70;;;14.30;99.90;;;;;;4959092;29;20466;-71
2021/08/02 04:29:06;;;;;;;6.10;4.77;;;14.30;99.90;;;;;;4959116;29;20481;-71
2021/08/02 04:31:35;;;;;;;8.47;5.00;;;14.40;99.90;;;;;;4958866;29;20471;-71
2021/08/02 04:34:04;;;;;;;6.17;4.83;;;14.40;99.90;;;;;;4958400;29;20491;-71
2021/08/02 04:36:34;;;;;;;12.77;5.73;;;14.50;99.90;;;;;;4958648;29;20478;-71
2021/08/02 04:39:04;;;;;;;5.87;5.27;;;14.50;99.90;;;;;;4958529;29;20943;-71
2021/08/02 04:41:31;;;;;;;12.13;5.87;;;14.50;99.90;;;;;;4958634;29;20770;-71
2021/08/02 04:44:01;;;;;;;7.37;5.30;;;14.50;99.90;;;;;;4958931;29;20918;-71
2021/08/02 04:46:28;;;;;;;9.20;4.97;;;14.50;99.90;;;;;;4958966;29;20927;-71
2021/08/02 04:48:58;;;;;;;5.73;5.13;;;14.60;99.90;;;;;;4958992;29;20462;-71
2021/08/02 04:51:26;;;;;;;7.50;5.00;;;14.60;99.90;;;;;;4958234;29;20522;-71
2021/08/02 04:53:53;;;;;;;10.93;5.53;;;14.60;99.90;;;;;;4958734;29;20494;-71
2021/08/02 04:56:20;;;;;;;9.73;5.87;;;14.70;99.90;;;;;;4958274;29;20471;-71
2021/08/02 04:58:48;;;;;;;7.67;5.63;;;14.70;99.90;;;;;;4959045;29;20497;-70
2021/08/02 05:01:15;;;;;;;8.03;5.73;;;14.80;99.90;;;;;;4958400;29;20959;-71
2021/08/02 05:03:42;;;;;;;11.00;5.30;;;14.80;99.90;;;;;;4952116;28;20479;-71
2021/08/02 05:06:09;;;;;;;6.13;5.40;;;14.90;99.90;;;;;;4955873;28;20935;-71
2021/08/02 05:08:39;;;;;;;7.13;5.60;;;14.90;99.90;;;;;;4958481;29;20466;-71
2021/08/02 05:11:06;;;;;;;6.60;5.47;;;14.90;99.90;;;;;;4958572;28;20919;-71
2021/08/02 05:13:34;;;;;;;12.40;5.60;;;14.90;99.90;;;;;;4960992;29;20467;-70
2021/08/02 05:16:01;;;;;;;6.97;6.27;;;15.00;99.90;;;;;;4961636;29;20482;-70
2021/08/02 05:18:28;;;;;;;5.70;5.20;;;15.00;99.90;;;;;;4962071;29;20466;-70
2021/08/02 05:20:55;;;;;;;9.60;5.50;;;15.10;99.90;;;;;;4961355;29;20480;-71
2021/08/02 05:23:22;;;;;;;6.37;5.00;;;15.10;99.90;;;;;;4961678;29;20473;-71
2021/08/02 05:25:51;;;;;;;6.47;4.70;;;15.20;99.90;;;;;;4961239;29;20470;-70
2021/08/02 05:28:20;;;;;;;8.30;5.60;;;15.20;99.90;;;;;;4961826;29;20470;-70
2021/08/02 05:30:47;;;;;;;6.57;5.47;;;15.20;99.90;;;;;;4961938;29;20471;-70
2021/08/02 05:33:17;;;;;;;7.33;5.10;;;15.30;99.90;;;;;;4961898;29;20466;-70
2021/08/02 05:35:44;;;;;;;7.20;5.07;;;15.30;99.90;;;;;;4961609;29;20918;-70
2021/08/02 05:38:11;;;;;;;6.27;4.73;;;15.30;99.90;;;;;;4961170;29;20542;-70
2021/08/02 05:40:38;;;;;;;8.00;4.90;;;15.20;99.90;;;;;;4961697;29;20566;-70
2021/08/02 05:43:07;;;;;;;7.23;4.87;;;15.20;99.90;;;;;;4962057;29;20978;-70
2021/08/02 05:45:34;;;;;;;7.33;4.20;;;15.40;99.90;;;;;;4961330;29;20801;-70
2021/08/02 05:48:01;;;;;;;5.83;4.57;;;15.40;99.90;;;;;;4961693;29;20838;-70
2021/08/02 05:50:29;;;;;;;8.13;4.47;;;15.40;99.90;;;;;;4961616;29;20454;-70
2021/08/02 05:52:57;;;;;;;8.63;4.13;;;15.40;99.90;;;;;;4961487;29;20467;-70
2021/08/02 05:55:24;;;;;;;5.93;4.43;;;15.30;99.90;;;;;;4961180;29;20557;-70
2021/08/02 05:57:51;;;;;;;5.00;4.00;;;15.30;99.90;;;;;;4961538;29;20840;-70
2021/08/02 06:00:23;;;;;;;5.90;3.67;;;15.10;99.90;;;;;;4961123;29;20494;-70
2021/08/02 06:02:50;;;;;;;4.03;3.73;;;14.90;99.90;;;;;;4956025;28;20485;-70
2021/08/02 06:05:18;;;;;;;7.13;4.07;;;14.70;99.90;;;;;;4950169;28;20486;-70
2021/08/02 06:07:45;;;;;;;7.97;4.60;;;14.70;99.90;;;;;;4960397;29;20899;-70
2021/08/02 06:10:13;;;;;;;7.90;4.50;;;14.80;99.90;;;;;;4960622;29;20463;-70
2021/08/02 06:12:40;;;;;;;8.00;6.90;;;14.80;99.90;;;;;;4960623;29;20462;-70
2021/08/02 06:15:10;;;;;;;10.20;4.47;;;14.90;99.90;;;;;;4960579;29;20466;-70
2021/08/02 06:17:39;;;;;;;10.63;4.07;;;14.90;99.90;;;;;;4961101;29;20816;-70
2021/08/02 06:20:07;;;;;;;8.80;4.57;;;15.00;99.90;;;;;;4960907;29;20498;-70
2021/08/02 06:22:34;;;;;;;6.70;4.03;;;15.10;99.90;;;;;;4960563;28;20463;-70
2021/08/02 06:25:04;;;;;;;7.63;4.40;;;15.00;99.90;;;;;;4960992;29;20475;-69
2021/08/02 06:27:31;;;;;;;6.67;4.90;;;15.00;99.90;;;;;;4960239;29;20466;-69
2021/08/02 06:30:01;;;;;;;6.70;4.13;;;15.20;99.90;;;;;;4960413;29;20467;-69
2021/08/02 06:32:29;;;;;;;6.13;4.30;;;15.30;99.90;;;;;;4960338;29;20466;-69
2021/08/02 06:34:57;;;;;;;8.83;4.00;;;15.60;99.90;;;;;;4960313;29;20466;-69
2021/08/02 06:37:27;;;;;;;4.70;4.30;;;15.80;99.90;;;;;;4960355;29;20466;-69
2021/08/02 06:39:54;;;;;;;7.33;5.03;;;16.00;99.90;;;;;;4959770;29;20503;-69
2021/08/02 06:42:21;;;;;;;8.90;4.43;;;16.10;99.90;;;;;;4961129;29;20474;-69
2021/08/02 06:44:51;;;;;;;5.03;4.40;;;16.20;99.90;;;;;;4960531;29;20884;-69
2021/08/02 06:47:19;;;;;;;8.40;4.40;;;16.30;99.90;;;;;;4960128;29;20991;-69
2021/08/02 06:49:49;;;;;;;4.60;4.00;;;16.30;99.90;;;;;;4960392;29;20812;-69
2021/08/02 06:52:17;;;;;;;9.23;4.53;;;16.30;99.90;;;;;;4960392;29;20891;-69
2021/08/02 06:54:47;;;;;;;6.30;4.53;;;16.00;99.90;;;;;;4960097;29;20530;-69
2021/08/02 06:57:14;;;;;;;8.60;4.77;;;16.10;99.90;;;;;;4959642;29;20828;-69
2021/08/02 06:59:42;;;;;;;6.50;5.17;;;16.10;99.90;;;;;;4959795;29;20585;-68
2021/08/02 07:02:09;;;;;;;5.87;4.70;;;16.00;99.90;;;;;;4960099;29;20470;-68
2021/08/02 07:04:36;;;;;;;4.53;3.80;;;15.90;99.90;;;;;;4955294;28;20474;-68
2021/08/02 07:07:03;;;;;;;6.50;4.60;;;15.90;99.90;;;;;;4959985;29;20462;-68
2021/08/02 07:09:32;;;;;;;7.23;4.77;;;16.00;99.90;;;;;;4959712;29;20732;-68
2021/08/02 07:11:59;;;;;;;8.63;4.83;;;15.90;99.90;;;;;;4960371;29;20467;-68
2021/08/02 07:14:25;;;;;;;6.00;4.57;;;15.70;99.90;;;;;;4959814;29;20918;-68
2021/08/02 07:16:52;;;;;;;10.80;4.80;;;15.60;99.90;;;;;;4959995;29;20899;-68
2021/08/02 07:19:21;;;;;;;7.40;4.93;;;15.50;99.90;;;;;;4959605;29;20498;-68
2021/08/02 07:21:48;;;;;;;5.37;4.57;;;15.50;99.90;;;;;;4959387;29;20502;-68
2021/08/02 07:24:15;;;;;;;6.97;5.03;;;15.50;99.90;;;;;;4959432;29;20471;-67
2021/08/02 07:26:45;;;;;;;8.50;4.30;;;15.40;99.90;;;;;;4959726;29;20462;-67
2021/08/02 08:06:35;;;;;;;9.80;7.43;;;17.10;99.90;;;;;;4498953;23;20496;-64
2021/08/02 08:09:04;;;;;;;9.30;7.10;;;17.10;99.90;;;;;;4997571;28;20492;-64
2021/08/02 08:11:34;;;;;;;11.23;7.50;;;17.30;99.90;;;;;;4998526;28;20465;-64
2021/08/02 08:14:02;;;;;;;10.73;7.33;;;16.90;99.90;;;;;;4997685;28;20465;-64
2021/08/02 08:16:32;;;;;;;10.97;8.17;;;16.60;99.90;;;;;;4997566;28;20588;-64
2021/08/02 08:18:59;;;;;;;10.40;7.07;;;16.70;99.90;;;;;;4998051;28;20469;-63
2021/08/02 08:21:26;;;;;;;8.03;7.00;;;16.80;99.90;;;;;;4997540;28;20457;-63
2021/08/02 08:24:00;;;;;;;12.47;7.53;;;16.80;99.90;;;;;;4997914;28;20465;-63
2021/08/02 08:26:30;;;;;;;8.53;7.30;;;16.80;99.90;;;;;;4997246;28;20471;-63
2021/08/02 08:29:01;;;;;;;9.90;8.63;;;17.20;99.90;;;;;;4979237;28;20471;-63
2021/08/02 08:31:28;;;;;;;8.40;7.60;;;17.40;99.90;;;;;;4976721;28;20523;-63
2021/08/02 08:33:56;;;;;;;11.73;8.30;;;17.40;99.90;;;;;;4970026;28;20548;-63
2021/08/02 08:36:29;;;;;;;13.87;8.40;;;17.20;99.90;;;;;;4974144;28;20463;-63
2021/08/02 08:38:56;;;;;;;12.00;7.90;;;17.40;99.90;;;;;;4976096;28;20524;-63
2021/08/02 08:41:27;;;;;;;10.60;7.07;;;17.20;99.90;;;;;;4978142;28;20572;-62
2021/08/02 08:43:55;;;;;;;9.10;7.37;;;17.50;99.90;;;;;;4978049;28;20473;-62
2021/08/02 08:46:24;;;;;;;8.57;7.00;;;17.90;99.90;;;;;;4978944;28;20520;-62
2021/08/02 08:48:54;;;;;;;11.20;7.10;;;17.30;99.90;;;;;;4981683;28;20478;-62
2021/08/02 08:51:22;;;;;;;11.17;7.37;;;17.20;99.90;;;;;;4981465;28;20465;-62
2021/08/02 08:53:53;;;;;;;9.20;6.93;;;17.00;99.90;;;;;;4981985;28;20910;-62
2021/08/02 08:56:23;;;;;;;11.20;6.77;;;16.90;99.90;;;;;;4981296;28;20512;-62
2021/08/02 08:58:52;;;;;;;9.33;7.10;;;17.10;99.90;;;;;;4977907;28;20529;-62
2021/08/02 09:01:29;;;;;;;10.13;7.80;;;17.30;99.90;;;;;;4980948;28;20946;-61
2021/08/02 09:03:58;;;;;;;11.10;8.27;;;17.40;99.90;;;;;;4971394;28;20496;-62
2021/08/02 09:06:25;;;;;;;11.70;7.97;;;17.40;99.90;;;;;;4967798;28;20544;-62
2021/08/02 09:08:53;;;;;;;13.60;8.40;;;17.50;99.90;;;;;;4978405;28;20465;-62
2021/08/02 09:11:20;;;;;;;19.30;8.57;;;17.50;99.90;;;;;;4978801;28;20461;-62
2021/08/02 09:13:49;;;;;;;10.07;8.37;;;17.40;99.90;;;;;;4973720;28;20521;-62
2021/08/02 09:16:21;;;;;;;9.33;7.30;;;17.10;99.90;;;;;;4981221;28;20477;-62
2021/08/02 09:18:58;;;;;;;11.33;8.40;;;17.10;99.90;;;;;;4980974;28;20557;-62
2021/08/02 09:21:27;;;;;;;10.83;7.13;;;17.30;99.90;;;;;;4979792;28;20533;-62
2021/08/02 09:23:57;;;;;;;10.23;7.80;;;17.20;99.90;;;;;;4981276;28;20470;-62
2021/08/02 09:26:31;;;;;;;9.00;7.30;;;17.30;99.90;;;;;;4979478;28;20505;-62
2021/08/02 09:29:00;;;;;;;8.37;7.47;;;17.80;99.90;;;;;;4970939;28;20470;-62
2021/08/02 09:31:40;;;;;;;9.80;8.30;;;17.70;99.90;;;;;;4979968;28;20469;-62
2021/08/02 09:34:09;;;;;;;12.33;8.60;;;16.90;99.90;;;;;;4980709;28;20527;-62
2021/08/02 09:36:40;;;;;;;8.60;7.83;;;16.90;99.90;;;;;;4980025;28;20549;-62
2021/08/02 09:39:09;;;;;;;9.13;7.43;;;17.10;99.90;;;;;;4977553;28;20826;-62
2021/08/02 09:41:35;;;;;;;9.53;8.70;;;17.20;99.90;;;;;;4981116;28;20505;-62
2021/08/02 09:44:04;;;;;;;8.83;7.90;;;17.20;99.90;;;;;;4978842;28;20525;-62
2021/08/02 09:46:31;;;;;;;8.27;7.47;;;17.10;99.90;;;;;;4979908;28;20470;-62
2021/08/02 09:49:04;;;;;;;8.97;7.93;;;16.90;99.90;;;;;;4979515;28;20823;-62
2021/08/02 09:51:42;;;;;;;8.43;7.63;;;16.70;99.90;;;;;;4979161;28;20495;-62
2021/08/02 09:54:09;;;;;;;7.33;6.60;;;16.70;99.90;;;;;;4975995;28;20915;-62
2021/08/02 09:56:37;;;;;;;7.53;6.90;;;16.70;99.90;;;;;;4971449;28;20477;-62
2021/08/02 09:59:07;;;;;;;7.60;6.90;;;16.80;99.90;;;;;;4966791;28;20474;-62
2021/08/02 10:01:34;;;;;;;7.50;6.77;;;16.80;99.90;;;;;;4963200;28;20605;-61
2021/08/02 10:04:05;;;;;;;6.43;5.83;;;16.90;99.90;;;;;;4955258;28;20480;-61
2021/08/02 10:06:33;;;;;;;8.23;7.20;;;17.00;99.90;;;;;;4972643;28;20490;-61
2021/08/02 10:09:00;;;;;;;7.90;7.20;;;17.10;99.90;;;;;;4980231;28;20893;-61
2021/08/02 10:11:32;;;;;;;7.83;6.40;;;17.10;99.90;;;;;;4978042;28;20477;-61
2021/08/02 10:13:59;;;;;;;6.77;6.17;;;17.30;99.90;;;;;;4982531;28;20819;-61
2021/08/02 10:16:28;;;;;;;7.23;5.63;;;17.70;99.90;;;;;;4982702;28;20466;-61
2021/08/02 10:19:04;;;;;;;6.93;6.20;;;17.70;99.90;;;;;;4975163;28;20466;-61
2021/08/02 10:21:39;;;;;;;6.20;5.30;;;17.70;99.90;;;;;;4979431;28;20552;-61
2021/08/02 10:24:07;;;;;;;4.30;3.90;;;18.00;99.90;;;;;;4978482;28;20466;-61
2021/08/02 10:26:35;;;;;;;9.60;6.47;;;18.20;97.60;;;;;;4966662;28;20470;-61
2021/08/02 10:29:04;;;;;;;9.13;5.53;;;18.20;99.90;;;;;;4979155;28;20949;-60
2021/08/02 10:31:45;;;;;;;5.43;4.93;;;18.20;99.90;;;;;;4979025;28;20466;-59
2021/08/02 10:34:16;;;;;;;3.80;3.50;;;18.40;99.90;;;;;;4975557;28;20909;-60
2021/08/02 10:36:44;;;;;;;4.37;4.00;;;18.90;94.90;;;;;;4974787;28;20468;-61
2021/08/02 10:39:25;;;;;;;5.00;3.77;;;18.90;93.50;;;;;;4981422;28;20471;-60
2021/08/02 10:42:05;;;;;;;4.37;3.83;;;19.00;90.80;;;;;;4980327;28;20549;-60
2021/08/02 10:44:35;;;;;;;3.70;3.20;;;19.20;90.80;;;;;;4979127;28;20918;-60
2021/08/02 10:47:09;;;;;;;4.17;3.70;;;19.40;90.90;;;;;;4979319;28;20560;-60
2021/08/02 10:49:53;;;;;;;5.20;3.73;;;19.60;85.50;;;;;;4979071;28;20524;-60
2021/08/02 10:52:27;;;;;;;4.47;4.07;;;19.60;87.60;;;;;;4978194;28;20981;-60
2021/08/02 10:54:57;;;;;;;7.60;4.10;;;19.60;85.30;;;;;;4979790;28;20508;-59
2021/08/02 10:57:24;;;;;;;4.20;3.90;;;19.80;84.60;;;;;;4979063;28;20552;-59
2021/08/02 10:59:51;;;;;;;8.20;4.27;;;20.00;84.00;;;;;;4979159;28;20986;-60
2021/08/02 11:02:18;;;;;;;5.37;3.77;;;19.80;86.00;;;;;;4977716;28;20541;-60
2021/08/02 11:04:54;;;;;;;4.53;4.13;;;19.80;84.60;;;;;;4969469;28;20883;-56
2021/08/02 11:07:25;;;;;;;4.50;4.10;;;19.80;82.40;;;;;;4971739;28;20485;-59
2021/08/02 11:09:55;;;;;;;4.67;4.17;;;19.70;82.50;;;;;;4972292;28;20485;-57
2021/08/02 11:12:25;;;;;;;4.13;3.73;;;19.40;84.20;;;;;;4978646;28;20520;-57
2021/08/02 11:14:54;;;;;;;8.67;4.20;;;19.20;90.10;;;;;;4978746;28;20823;-54
2021/08/02 11:17:23;;;;;;;5.10;4.60;;;19.60;88.40;;;;;;4979185;28;20465;-58
2021/08/02 11:20:00;;;;;;;4.60;4.13;;;20.00;90.10;;;;;;4979364;28;20805;-59
2021/08/02 11:22:27;;;;;;;4.43;3.97;;;20.10;86.30;;;;;;4977017;28;20501;-55
2021/08/02 11:24:55;;;;;;;4.67;4.27;;;20.10;83.00;;;;;;4968332;28;20475;-57
2021/08/02 11:27:25;;;;;;;5.27;4.80;;;19.50;85.30;;;;;;4959752;29;20466;-56
2021/08/02 11:29:54;;;;;;;5.40;4.80;;;19.50;86.70;;;;;;4959218;29;20462;-56
2021/08/02 11:32:26;;;;;;;5.13;4.67;;;19.50;87.20;;;;;;4959412;29;20462;-58
2021/08/02 11:35:01;;;;;;;5.13;4.70;;;19.80;85.90;;;;;;4959356;29;20896;-54
2021/08/02 11:37:31;;;;;;;4.40;4.00;;;19.80;86.60;;;;;;4959596;29;20739;-55
2021/08/02 11:40:00;;;;;;;6.37;4.80;;;19.80;85.80;;;;;;4975471;28;20461;-52
2021/08/02 11:42:32;;;;;;;4.33;3.93;;;19.70;85.00;;;;;;4978720;28;20462;-57
2021/08/02 11:45:02;;;;;;;5.60;5.10;;;19.50;87.20;;;;;;4977916;28;20470;-58
2021/08/02 11:47:32;;;;;;;4.47;4.10;;;19.70;86.40;;;;;;4978928;28;20465;-53
2021/08/02 11:50:01;;;;;;;5.20;4.70;;;19.40;87.10;;;;;;4977209;28;20895;-58
2021/08/02 11:52:28;;;;;;;4.40;3.93;;;19.30;86.30;;;;;;4969871;28;20888;-55
2021/08/02 11:54:59;;;;;;;4.80;4.03;;;19.40;86.60;;;;;;4968551;28;20466;-57
2021/08/02 11:57:29;;;;;;;5.30;4.30;;;20.00;86.30;;;;;;4976135;28;20470;-55
2021/08/02 11:59:57;;;;;;;4.27;3.97;;;20.10;86.60;;;;;;4965370;28;20467;-54
2021/08/02 12:02:34;;;;;;;6.20;5.30;;;20.60;83.60;;;;;;4959192;29;20517;-56
2021/08/02 12:05:04;;;;;;;5.20;4.80;;;20.90;80.70;;;;;;4955127;28;20497;-53
2021/08/02 12:07:32;;;;;;;7.63;5.47;;;21.20;80.60;;;;;;4997486;28;20535;-57
2021/08/02 12:10:15;;;;;;;5.57;5.07;;;21.30;80.00;;;;;;4997720;28;20540;-52
2021/08/02 12:12:45;;;;;;;5.93;5.43;;;21.70;78.90;;;;;;4989259;28;20466;-55
2021/08/02 12:15:14;;;;;;;5.70;5.20;;;21.90;76.50;;;;;;4978289;28;20469;-57
2021/08/02 12:17:48;;;;;;;5.70;5.20;;;22.20;75.50;;;;;;4977763;28;20584;-55
2021/08/02 12:20:28;;;;;;;5.00;4.60;;;22.30;76.20;;;;;;4977652;28;20473;-57
2021/08/02 12:22:55;;;;;;;5.87;5.37;;;22.20;74.20;;;;;;4981595;28;20470;-54
2021/08/02 12:25:24;;;;;;;5.73;5.30;;;22.00;73.70;;;;;;4982374;28;20899;-55
2021/08/02 12:27:59;;;;;;;5.77;5.27;;;21.90;73.40;;;;;;4981718;28;20918;-55
2021/08/02 12:30:27;;;;;;;5.63;5.13;;;22.40;71.90;;;;;;4982428;28;20811;-54
2021/08/02 12:32:54;;;;;;;7.23;4.80;;;22.60;72.90;;;;;;4981319;28;20497;-54
2021/08/02 12:35:22;;;;;;;7.63;5.20;;;22.90;72.20;;;;;;4982267;28;20805;-56
2021/08/02 12:37:49;;;;;;;7.80;5.77;;;23.00;70.60;;;;;;4981315;28;20491;-58
2021/08/02 12:40:18;;;;;;;6.33;5.50;;;23.00;67.20;;;;;;4999719;28;20906;-58
2021/08/02 12:42:46;;;;;;;5.57;4.30;;;23.00;66.50;;;;;;5001678;28;20460;-53
2021/08/02 12:45:15;;;;;;;5.43;4.67;;;23.20;68.30;;;;;;5001470;28;20890;-57
2021/08/02 12:47:42;;;;;;;5.27;4.10;;;23.60;68.60;;;;;;5001296;28;20464;-58
2021/08/02 12:50:11;;;;;;;5.27;4.77;;;24.30;63.30;;;;;;5000551;28;20956;-56
2021/08/02 12:52:40;;;;;;;6.07;4.53;;;24.10;64.00;;;;;;4965098;28;20450;-56
2021/08/02 12:55:14;;;;;;;4.43;4.03;;;23.50;63.00;;;;;;4973297;28;20457;-57
2021/08/02 12:57:41;;;;;;;6.77;5.00;;;23.50;62.70;;;;;;4980159;28;20462;-53
2021/08/02 13:00:11;;;;;;;4.03;3.70;;;23.30;66.40;;;;;;4980162;28;20471;-55
2021/08/02 13:02:41;;;;;;;5.23;4.77;;;23.80;64.50;;;;;;4980173;28;20509;-57
2021/08/02 13:05:12;;;;;;;4.83;4.20;;;23.70;65.40;;;;;;4974999;28;20497;-57
2021/08/02 13:07:42;;;;;;;5.97;4.50;;;23.10;62.00;;;;;;4980508;28;20454;-57
2021/08/02 13:10:15;;;;;;;6.10;5.60;;;23.30;62.80;;;;;;4980521;28;20462;-58
2021/08/02 13:12:42;;;;;;;5.47;5.07;;;22.60;65.70;;;;;;4980575;28;20453;-58
2021/08/02 13:15:10;;;;;;;6.30;5.20;;;22.60;67.50;;;;;;4981212;28;20540;-54
2021/08/02 13:17:37;;;;;;;6.60;5.33;;;22.30;69.00;;;;;;4981601;28;20567;-57
2021/08/02 13:20:05;;;;;;;6.23;5.63;;;22.80;67.70;;;;;;4981336;28;20433;-57
2021/08/02 13:22:42;;;;;;;5.90;5.20;;;23.10;64.20;;;;;;4980435;28;20494;-56
2021/08/02 13:27:56;;;;;;;4.53;4.23;;;23.10;63.50;;;;;;4937983;28;20785;-55
2021/08/02 13:30:23;;;;;;;5.83;5.13;;;22.90;59.70;;;;;;4980903;28;20465;-57
2021/08/02 13:32:53;;;;;;;5.20;4.70;;;23.20;62.90;;;;;;4979519;28;20488;-56
2021/08/02 13:35:20;;;;;;;5.23;4.83;;;23.10;64.60;;;;;;4980914;28;20991;-58